Time;durP1;ratioP1;P1;durP2;ratioP2;P2;SDS_P1;SDS_P2;PMS_P1;PMS_P2;Temp;Humidity;BMP_temperature;BMP_pressure;BME280_temperature;BME280_humidity;BME280_pressure;Samples;Min_cycle;Max_cycle;Signal;HPM_P1;HPM_P2
2023/02/25 00:01:02;;;;;;;;;;;;;;;5.96;100.00;100092.13;5030843;28;20007;-71
2023/02/25 00:03:27;;;;;;;;;;;;;;;5.77;100.00;100094.56;5030911;28;19932;-71
2023/02/25 00:05:52;;;;;;;;;;;;;;;5.54;100.00;100099.41;5030170;28;19921;-69
2023/02/25 00:08:17;;;;;;;;;;;;;;;5.42;100.00;100099.69;5029437;28;20541;-69
2023/02/25 00:10:43;;;;;;;;;;;;;;;5.44;100.00;100107.44;5030399;28;19971;-68
2023/02/25 00:13:08;;;;;;;;;;;;;;;5.57;100.00;100107.28;5030879;28;19917;-70
2023/02/25 00:15:33;;;;;;;;;;;;;;;5.74;100.00;100109.81;5030283;28;19943;-70
2023/02/25 00:17:59;;;;;;;;;;;;;;;5.76;100.00;100103.09;5030488;28;19928;-70
2023/02/25 00:20:25;;;;;;;;;;;;;;;5.69;100.00;100098.44;5030470;28;19967;-69
2023/02/25 00:22:50;;;;;;;;;;;;;;;5.70;100.00;100097.66;5030475;28;19917;-69
2023/02/25 00:25:16;;;;;;;;;;;;;;;5.47;100.00;100102.47;5030237;28;19924;-69
2023/02/25 00:27:42;;;;;;;;;;;;;;;5.47;100.00;100089.66;5030379;28;20379;-70
2023/02/25 00:30:09;;;;;;;;;;;;;;;5.43;100.00;100087.75;5030176;28;20332;-71
2023/02/25 00:32:35;;;;;;;;;;;;;;;5.47;100.00;100090.56;5030287;28;19967;-70
2023/02/25 00:35:00;;;;;;;;;;;;;;;5.48;100.00;100093.97;5037314;28;19975;-69
2023/02/25 00:37:26;;;;;;;;;;;;;;;5.60;100.00;100088.63;5051209;28;20352;-71
2023/02/25 00:39:51;;;;;;;;;;;;;;;5.55;100.00;100084.94;5050325;28;20333;-71
2023/02/25 00:42:17;;;;;;;;;;;;;;;5.50;100.00;100080.44;5039173;28;20338;-69
2023/02/25 00:44:44;;;;;;;;;;;;;;;5.57;100.00;100083.31;5045269;28;19924;-70
2023/02/25 00:47:09;;;;;;;;;;;;;;;5.62;100.00;100085.34;5033025;28;20289;-70
2023/02/25 00:49:35;;;;;;;;;;;;;;;5.61;100.00;100083.56;5050560;28;20047;-71
2023/02/25 00:52:00;;;;;;;;;;;;;;;5.61;100.00;100083.56;5050246;28;19921;-73
2023/02/25 00:54:26;;;;;;;;;;;;;;;5.46;100.00;100081.09;5050449;28;20011;-69
2023/02/25 00:56:52;;;;;;;;;;;;;;;5.47;100.00;100079.41;5050898;28;19917;-72
2023/02/25 00:59:17;;;;;;;;;;;;;;;5.51;100.00;100071.09;5050453;28;20015;-71
2023/02/25 01:01:42;;;;;;;;;;;;;;;5.48;100.00;100076.06;5051034;28;19939;-74
2023/02/25 01:04:08;;;;;;;;;;;;;;;5.44;100.00;100074.16;5070489;28;19917;-69
2023/02/25 01:06:35;;;;;;;;;;;;;;;5.50;100.00;100066.78;5069669;28;19923;-70
2023/02/25 01:09:01;;;;;;;;;;;;;;;5.50;100.00;100066.78;5070248;28;19924;-72
2023/02/25 01:11:28;;;;;;;;;;;;;;;5.55;100.00;100067.03;5069973;28;19917;-70
2023/02/25 01:13:54;;;;;;;;;;;;;;;5.56;100.00;100064.53;5070654;28;19916;-72
2023/02/25 01:16:21;;;;;;;;;;;;;;;5.45;100.00;100058.84;5071675;28;19968;-71
2023/02/25 01:18:50;;;;;;;;;;;;;;;5.20;100.00;100051.63;5074336;28;19924;-69
2023/02/25 01:21:17;;;;;;;;;;;;;;;5.07;100.00;100042.44;5070896;28;19913;-69
2023/02/25 01:23:46;;;;;;;;;;;;;;;4.89;100.00;100057.69;5074138;28;19920;-72
2023/02/25 01:26:12;;;;;;;;;;;;;;;4.89;100.00;100057.69;5074105;28;19916;-72
2023/02/25 01:28:38;;;;;;;;;;;;;;;4.77;100.00;100054.47;5074091;28;19920;-70
2023/02/25 01:31:07;;;;;;;;;;;;;;;4.64;100.00;100055.50;5039741;28;19932;-71
2023/02/25 01:33:32;;;;;;;;;;;;;;;4.48;100.00;100062.31;5039201;28;19923;-70
2023/02/25 01:36:00;;;;;;;;;;;;;;;4.40;100.00;100060.13;5073895;28;19920;-69
2023/02/25 01:38:26;;;;;;;;;;;;;;;4.58;100.00;100056.03;5073943;28;19916;-70
2023/02/25 01:40:56;;;;;;;;;;;;;;;4.68;100.00;100050.59;5073679;28;20147;-69
2023/02/25 01:43:22;;;;;;;;;;;;;;;4.29;100.00;100045.09;5055523;28;19916;-69
2023/02/25 01:45:47;;;;;;;;;;;;;;;4.25;100.00;100050.84;5073340;28;19974;-69
2023/02/25 01:48:16;;;;;;;;;;;;;;;4.19;100.00;100048.81;5073673;28;20654;-69
2023/02/25 01:50:47;;;;;;;;;;;;;;;3.98;100.00;100045.06;5072980;28;19917;-70
2023/02/25 01:53:13;;;;;;;;;;;;;;;3.98;100.00;100048.50;5073432;28;19916;-70
2023/02/25 01:55:40;;;;;;;;;;;;;;;4.02;100.00;100047.88;5073463;28;19916;-70
2023/02/25 01:58:06;;;;;;;;;;;;;;;3.97;100.00;100046.72;5073049;28;19913;-69
2023/02/25 02:00:31;;;;;;;;;;;;;;;3.85;100.00;100044.38;5073874;28;19921;-69
2023/02/25 02:02:57;;;;;;;;;;;;;;;3.80;100.00;100045.78;5073421;28;20329;-71
2023/02/25 02:05:24;;;;;;;;;;;;;;;3.86;100.00;100045.25;5073033;28;19927;-69
2023/02/25 02:07:49;;;;;;;;;;;;;;;3.92;100.00;100037.94;5073352;28;19924;-70
2023/02/25 02:10:16;;;;;;;;;;;;;;;3.95;100.00;100045.78;5073303;28;20310;-70
2023/02/25 02:12:43;;;;;;;;;;;;;;;3.96;100.00;100039.00;5020409;28;19978;-69
2023/02/25 02:15:10;;;;;;;;;;;;;;;3.87;100.00;100034.25;5064362;28;20008;-69
2023/02/25 02:17:35;;;;;;;;;;;;;;;3.73;100.00;100026.66;5033940;28;20015;-71
2023/02/25 02:20:20;;;;;;;;;;;;;;;3.72;100.00;100029.13;5066112;28;20412;-72
2023/02/25 02:22:57;;;;;;;;;;;;;;;3.68;100.00;100024.66;5072702;28;20008;-72
2023/02/25 02:25:41;;;;;;;;;;;;;;;3.51;100.00;100026.22;5073391;28;19966;-73
2023/02/25 02:28:24;;;;;;;;;;;;;;;3.45;100.00;100030.97;5072048;28;20019;-69
2023/02/25 02:31:08;;;;;;;;;;;;;;;3.63;100.00;100020.97;5050569;28;19916;-70
2023/02/25 02:33:46;;;;;;;;;;;;;;;3.78;100.00;100020.97;5072599;28;19923;-70
2023/02/25 02:36:37;;;;;;;;;;;;;;;3.82;100.00;100023.75;5072886;28;19917;-69
2023/02/25 02:39:05;;;;;;;;;;;;;;;3.80;100.00;100016.81;5052145;28;19916;-69
2023/02/25 02:41:35;;;;;;;;;;;;;;;3.79;100.00;100025.25;5072561;28;19921;-71
2023/02/25 02:44:01;;;;;;;;;;;;;;;3.66;100.00;100032.22;5072676;28;19917;-70
2023/02/25 02:46:28;;;;;;;;;;;;;;;3.59;100.00;100024.13;5072370;28;19916;-69
2023/02/25 02:49:20;;;;;;;;;;;;;;;3.47;100.00;100026.84;5072003;28;19923;-70
2023/02/25 02:51:50;;;;;;;;;;;;;;;3.56;100.00;100015.50;5072990;28;19916;-71
2023/02/25 02:54:17;;;;;;;;;;;;;;;3.61;100.00;100009.78;5072316;28;19968;-69
2023/02/25 02:56:43;;;;;;;;;;;;;;;3.63;100.00;100005.66;5064656;28;19917;-72
2023/02/25 02:59:17;;;;;;;;;;;;;;;3.54;100.00;100006.00;5067033;28;19916;-68
2023/02/25 03:01:51;;;;;;;;;;;;;;;3.55;100.00;100012.84;5072982;28;19927;-70
2023/02/25 03:04:20;;;;;;;;;;;;;;;3.51;100.00;100001.56;5071989;28;19916;-69
2023/02/25 03:06:49;;;;;;;;;;;;;;;3.53;100.00;100004.25;5072616;28;19916;-72
2023/02/25 03:09:17;;;;;;;;;;;;;;;3.54;100.00;100011.13;5071809;28;19920;-71
2023/02/25 03:11:42;;;;;;;;;;;;;;;3.49;100.00;100007.38;5072436;28;19985;-69
2023/02/25 03:14:09;;;;;;;;;;;;;;;3.38;100.00;100007.66;5070894;28;19960;-71
2023/02/25 03:16:37;;;;;;;;;;;;;;;3.39;100.00;100018.75;5072222;28;19931;-69
2023/02/25 03:19:06;;;;;;;;;;;;;;;3.45;100.00;100013.13;5067520;28;19920;-69
2023/02/25 03:21:37;;;;;;;;;;;;;;;3.41;100.00;100006.94;5064102;28;19923;-71
2023/02/25 03:24:04;;;;;;;;;;;;;;;3.42;100.00;100015.50;5071501;28;19966;-69
2023/02/25 03:26:31;;;;;;;;;;;;;;;3.43;100.00;100010.47;5071574;28;20306;-69
2023/02/25 03:28:56;;;;;;;;;;;;;;;3.45;100.00;100008.91;5071727;28;19974;-72
2023/02/25 03:31:21;;;;;;;;;;;;;;;3.43;100.00;100017.25;5071468;28;19916;-69
2023/02/25 03:33:50;;;;;;;;;;;;;;;3.32;100.00;100025.16;5071534;28;20019;-69
2023/02/25 03:36:22;;;;;;;;;;;;;;;3.21;100.00;100018.53;5071601;28;20011;-72
2023/02/25 03:38:49;;;;;;;;;;;;;;;3.08;100.00;100020.38;5071487;28;20370;-69
2023/02/25 03:41:16;;;;;;;;;;;;;;;3.11;100.00;100016.25;5071524;28;20360;-70
2023/02/25 03:43:44;;;;;;;;;;;;;;;3.21;100.00;100016.00;5071593;28;19948;-69
2023/02/25 03:46:10;;;;;;;;;;;;;;;3.32;100.00;100024.28;5071269;28;19916;-70
2023/02/25 03:48:37;;;;;;;;;;;;;;;3.36;100.00;100016.88;5071614;28;19920;-69
2023/02/25 03:51:03;;;;;;;;;;;;;;;3.26;100.00;100014.59;5070968;28;20402;-70
2023/02/25 03:53:29;;;;;;;;;;;;;;;3.17;100.00;100012.38;5070782;28;19924;-75
2023/02/25 03:55:56;;;;;;;;;;;;;;;3.11;100.00;100009.47;5071201;28;19942;-69
2023/02/25 03:58:22;;;;;;;;;;;;;;;3.10;100.00;100017.03;5053029;28;20398;-72
2023/02/25 04:00:49;;;;;;;;;;;;;;;3.10;100.00;100010.25;5071117;28;19917;-71
2023/02/25 04:03:15;;;;;;;;;;;;;;;3.20;100.00;100009.13;5071347;28;19916;-69
2023/02/25 04:05:40;;;;;;;;;;;;;;;3.30;100.00;100011.44;5071184;28;20286;-69
2023/02/25 04:08:14;;;;;;;;;;;;;;;3.41;100.00;99996.75;5070399;28;20374;-69
2023/02/25 04:10:42;;;;;;;;;;;;;;;3.46;100.00;99999.56;5070962;28;19916;-69
2023/02/25 04:13:07;;;;;;;;;;;;;;;3.52;100.00;100005.03;5071001;28;20418;-69
2023/02/25 04:15:32;;;;;;;;;;;;;;;3.42;100.00;100006.16;5070505;28;19928;-69
2023/02/25 04:17:58;;;;;;;;;;;;;;;3.46;100.00;99991.91;5070656;28;19924;-71
2023/02/25 04:20:23;;;;;;;;;;;;;;;3.49;100.00;99981.88;5070970;28;20027;-71
2023/02/25 04:22:48;;;;;;;;;;;;;;;3.52;100.00;99980.38;5070994;28;19924;-69
2023/02/25 04:25:14;;;;;;;;;;;;;;;3.59;100.00;99973.06;5070548;28;19916;-74
2023/02/25 04:27:39;;;;;;;;;;;;;;;3.64;100.00;99980.22;5070994;28;19990;-69
2023/02/25 04:30:04;;;;;;;;;;;;;;;3.55;100.00;99980.56;5070396;28;19916;-69
2023/02/25 04:32:30;;;;;;;;;;;;;;;3.56;100.00;99978.88;5071050;28;19916;-69
2023/02/25 04:35:01;;;;;;;;;;;;;;;3.53;100.00;99983.81;5071164;28;19917;-72
2023/02/25 04:37:27;;;;;;;;;;;;;;;3.45;100.00;99982.50;5052770;28;20350;-72
2023/02/25 04:39:52;;;;;;;;;;;;;;;3.40;100.00;99972.91;5070336;28;19959;-69
2023/02/25 04:42:18;;;;;;;;;;;;;;;3.40;100.00;99972.00;5070714;28;19966;-70
2023/02/25 04:44:43;;;;;;;;;;;;;;;3.38;100.00;99971.06;5069751;28;20457;-70
2023/02/25 04:47:08;;;;;;;;;;;;;;;3.36;100.00;99968.41;5070945;28;19980;-69
2023/02/25 04:49:43;;;;;;;;;;;;;;;3.36;100.00;99968.41;5070567;28;20439;-73
2023/02/25 04:52:08;;;;;;;;;;;;;;;3.35;100.00;99969.22;5070365;28;19920;-69
2023/02/25 04:54:34;;;;;;;;;;;;;;;3.24;100.00;99971.13;5070373;28;19916;-70
2023/02/25 04:56:59;;;;;;;;;;;;;;;3.10;100.00;99966.88;5070240;28;20306;-68
2023/02/25 04:59:25;;;;;;;;;;;;;;;3.02;100.00;99974.09;5070339;28;20322;-72
2023/02/25 05:01:50;;;;;;;;;;;;;;;2.79;100.00;99971.84;5018411;28;20314;-69
2023/02/25 05:04:16;;;;;;;;;;;;;;;2.70;100.00;99988.34;5057258;28;19931;-69
2023/02/25 05:06:41;;;;;;;;;;;;;;;2.68;100.00;99987.38;5050806;28;19921;-70
2023/02/25 05:09:06;;;;;;;;;;;;;;;2.84;100.00;99973.91;5045827;28;19921;-72
2023/02/25 05:11:32;;;;;;;;;;;;;;;2.80;100.00;99965.97;5036471;28;19917;-68
2023/02/25 05:13:57;;;;;;;;;;;;;;;2.82;100.00;99967.81;5032682;28;20348;-73
2023/02/25 05:16:23;;;;;;;;;;;;;;;2.95;100.00;99969.41;5046763;28;20264;-71
2023/02/25 05:18:48;;;;;;;;;;;;;;;2.96;100.00;99972.88;5040274;28;19971;-71
2023/02/25 05:21:15;;;;;;;;;;;;;;;2.90;100.00;99973.38;5049934;28;19956;-73
2023/02/25 05:23:41;;;;;;;;;;;;;;;2.85;100.00;99972.22;5014990;28;19917;-69
2023/02/25 05:26:07;;;;;;;;;;;;;;;2.85;100.00;99964.56;5049872;28;19960;-68
2023/02/25 05:28:33;;;;;;;;;;;;;;;2.86;100.00;99966.34;5050550;28;19923;-73
2023/02/25 05:30:58;;;;;;;;;;;;;;;2.87;100.00;99974.06;5050270;28;20294;-73
2023/02/25 05:33:24;;;;;;;;;;;;;;;2.89;100.00;99981.81;5049797;28;19944;-70
2023/02/25 05:35:49;;;;;;;;;;;;;;;2.74;100.00;99975.00;5066019;28;19923;-69
2023/02/25 05:38:15;;;;;;;;;;;;;;;2.84;100.00;99978.09;5070068;28;19921;-69
2023/02/25 05:40:40;;;;;;;;;;;;;;;2.98;100.00;99972.16;5070228;28;20283;-69
2023/02/25 05:43:06;;;;;;;;;;;;;;;3.10;100.00;99968.56;5070391;28;20459;-72
2023/02/25 05:45:31;;;;;;;;;;;;;;;3.15;100.00;99982.47;5069910;28;20339;-71
2023/02/25 05:47:56;;;;;;;;;;;;;;;3.21;100.00;99973.50;5052413;28;19924;-68
2023/02/25 05:50:22;;;;;;;;;;;;;;;3.33;100.00;99967.38;5069471;28;19916;-68
2023/02/25 05:52:48;;;;;;;;;;;;;;;3.45;100.00;99968.09;5069511;28;19916;-69
2023/02/25 05:55:15;;;;;;;;;;;;;;;3.51;100.00;99970.09;5069755;28;19921;-69
2023/02/25 05:57:40;;;;;;;;;;;;;;;3.53;100.00;99977.03;5069686;28;20376;-69
2023/02/25 06:00:08;;;;;;;;;;;;;;;3.43;100.00;99972.22;5070477;28;19917;-69
2023/02/25 06:02:34;;;;;;;;;;;;;;;3.43;100.00;99966.19;5070585;28;19955;-70
2023/02/25 06:05:00;;;;;;;;;;;;;;;3.38;100.00;99974.47;5073824;28;19927;-69
2023/02/25 06:07:27;;;;;;;;;;;;;;;3.28;100.00;99974.75;5073387;28;19917;-69
2023/02/25 06:09:53;;;;;;;;;;;;;;;3.26;100.00;99976.31;5073238;28;20065;-71
2023/02/25 06:12:19;;;;;;;;;;;;;;;3.31;100.00;99971.50;5073421;28;19917;-73
2023/02/25 06:14:44;;;;;;;;;;;;;;;3.31;100.00;99961.28;5073170;28;19924;-72
2023/02/25 06:17:09;;;;;;;;;;;;;;;3.28;100.00;99962.00;5073175;28;19935;-71
2023/02/25 06:19:35;;;;;;;;;;;;;;;3.23;100.00;99964.28;5072601;28;20020;-71
2023/02/25 06:22:00;;;;;;;;;;;;;;;3.26;100.00;99961.00;5072729;28;19917;-72
2023/02/25 06:24:25;;;;;;;;;;;;;;;3.21;100.00;99957.31;5072849;28;19916;-72
2023/02/25 06:26:50;;;;;;;;;;;;;;;3.28;100.00;99956.91;5053088;28;19916;-68
2023/02/25 06:29:16;;;;;;;;;;;;;;;3.28;100.00;99956.00;5055471;28;20401;-70
2023/02/25 06:31:42;;;;;;;;;;;;;;;3.34;100.00;99967.44;5054037;28;19974;-71
2023/02/25 06:34:07;;;;;;;;;;;;;;;3.44;100.00;99973.97;5053829;28;20417;-71
2023/02/25 06:36:32;;;;;;;;;;;;;;;3.56;100.00;99977.22;5053005;28;19917;-75
2023/02/25 06:38:58;;;;;;;;;;;;;;;3.71;100.00;99977.22;5053076;28;19917;-75
2023/02/25 06:41:23;;;;;;;;;;;;;;;3.72;100.00;99976.41;5053108;28;19916;-69
2023/02/25 06:43:51;;;;;;;;;;;;;;;3.84;100.00;99977.91;5053017;28;20015;-69
2023/02/25 06:46:18;;;;;;;;;;;;;;;3.98;100.00;99978.66;5052997;28;19928;-77
2023/02/25 06:48:44;;;;;;;;;;;;;;;4.05;100.00;99975.66;5053135;28;19921;-71
2023/02/25 06:51:11;;;;;;;;;;;;;;;4.17;100.00;99970.31;5052882;28;19975;-72
2023/02/25 06:53:38;;;;;;;;;;;;;;;4.22;100.00;99963.78;5053095;28;20031;-75
2023/02/25 06:56:05;;;;;;;;;;;;;;;4.05;100.00;99961.19;5052714;28;19973;-70
2023/02/25 06:58:30;;;;;;;;;;;;;;;4.07;100.00;99960.41;5017510;28;19917;-71
2023/02/25 07:00:55;;;;;;;;;;;;;;;4.09;100.00;99946.03;5052431;28;20406;-69
2023/02/25 07:03:21;;;;;;;;;;;;;;;4.12;100.00;99936.84;5052548;28;19921;-68
2023/02/25 07:05:46;;;;;;;;;;;;;;;4.20;100.00;99942.41;5052490;28;20505;-68
2023/02/25 07:08:11;;;;;;;;;;;;;;;4.23;100.00;99940.00;5052729;28;20426;-68
2023/02/25 07:10:39;;;;;;;;;;;;;;;4.26;100.00;99935.06;5041902;28;19925;-68
2023/02/25 07:13:04;;;;;;;;;;;;;;;4.29;100.00;99925.00;5031559;28;20016;-70
2023/02/25 07:15:30;;;;;;;;;;;;;;;4.27;100.00;99934.25;5031196;28;20032;-69
2023/02/25 07:20:58;;;;;;;;;;;;;;;4.30;100.00;99931.88;5120925;23;19982;-69
2023/02/25 07:23:23;;;;;;;;;;;;;;;4.34;100.00;99946.56;5092845;28;20359;-70
2023/02/25 07:25:49;;;;;;;;;;;;;;;4.38;100.00;99950.16;5091034;28;19978;-70
2023/02/25 07:28:15;;;;;;;;;;;;;;;4.29;100.00;99945.44;5091475;28;20894;-70
2023/02/25 07:30:41;;;;;;;;;;;;;;;4.33;100.00;99941.38;5092196;28;19916;-74
2023/02/25 07:33:07;;;;;;;;;;;;;;;4.47;100.00;99934.44;5091937;28;19938;-72
2023/02/25 07:35:32;;;;;;;;;;;;;;;4.68;100.00;99933.00;5092160;28;20019;-69
2023/02/25 07:37:58;;;;;;;;;;;;;;;4.89;100.00;99921.25;5092211;28;19973;-69
2023/02/25 07:40:23;;;;;;;;;;;;;;;4.92;100.00;99919.72;5092130;28;19917;-70
2023/02/25 07:42:49;;;;;;;;;;;;;;;4.86;100.00;99924.53;5091491;28;20383;-70
2023/02/25 07:45:15;;;;;;;;;;;;;;;4.93;100.00;99920.59;5091770;28;19969;-69
2023/02/25 07:47:40;;;;;;;;;;;;;;;5.05;100.00;99930.56;5092309;28;19916;-73
2023/02/25 07:50:06;;;;;;;;;;;;;;;5.08;100.00;99926.47;5092088;28;20058;-72
2023/02/25 07:52:32;;;;;;;;;;;;;;;5.26;100.00;99923.97;5092043;28;19925;-69
2023/02/25 07:54:57;;;;;;;;;;;;;;;5.47;100.00;99925.81;5092316;28;19916;-69
2023/02/25 07:57:22;;;;;;;;;;;;;;;5.71;100.00;99925.22;5091602;28;19923;-70
2023/02/25 07:59:47;;;;;;;;;;;;;;;5.98;100.00;99907.72;5092079;28;19928;-69
2023/02/25 08:02:14;;;;;;;;;;;;;;;6.20;100.00;99907.03;5091943;28;19922;-69
2023/02/25 08:04:39;;;;;;;;;;;;;;;6.38;100.00;99901.88;5091867;28;19923;-69
2023/02/25 08:07:05;;;;;;;;;;;;;;;6.52;100.00;99889.66;5091816;28;19931;-72
2023/02/25 08:09:30;;;;;;;;;;;;;;;6.70;100.00;99888.72;5089463;28;19927;-69
2023/02/25 08:11:56;;;;;;;;;;;;;;;6.89;100.00;99888.69;5091300;28;19920;-68
2023/02/25 08:14:21;;;;;;;;;;;;;;;7.07;100.00;99877.44;5091919;28;19924;-68
2023/02/25 08:16:47;;;;;;;;;;;;;;;7.25;100.00;99873.06;5091830;28;19916;-70
2023/02/25 08:19:12;;;;;;;;;;;;;;;7.44;100.00;99860.97;5091607;28;19916;-68
2023/02/25 08:21:39;;;;;;;;;;;;;;;7.61;100.00;99857.38;5091582;28;20362;-72
2023/02/25 08:24:04;;;;;;;;;;;;;;;7.78;100.00;99847.72;5091194;28;20400;-70
2023/02/25 08:26:30;;;;;;;;;;;;;;;8.01;100.00;99849.41;5088767;28;19916;-72
2023/02/25 08:28:56;;;;;;;;;;;;;;;8.22;100.00;99844.19;5091281;28;19916;-71
2023/02/25 08:31:21;;;;;;;;;;;;;;;8.45;100.00;99850.16;5065861;28;19999;-70
2023/02/25 08:33:48;;;;;;;;;;;;;;;8.50;100.00;99840.94;5091095;28;20453;-68
2023/02/25 08:36:25;;;;;;;;;;;;;;;8.63;100.00;99841.38;5091130;28;20385;-70
2023/02/25 08:38:51;;;;;;;;;;;;;;;8.79;100.00;99838.50;5091004;28;20278;-72
2023/02/25 08:41:17;;;;;;;;;;;;;;;8.86;100.00;99835.31;5091230;28;20056;-68
2023/02/25 08:43:43;;;;;;;;;;;;;;;8.94;100.00;99826.97;5091295;28;20002;-68
2023/02/25 08:46:10;;;;;;;;;;;;;;;9.11;100.00;99825.81;5090358;28;20321;-69
2023/02/25 08:48:35;;;;;;;;;;;;;;;9.28;100.00;99831.47;5091700;28;19916;-74
2023/02/25 08:51:07;;;;;;;;;;;;;;;9.31;100.00;99828.13;5090844;28;19916;-69
2023/02/25 08:53:32;;;;;;;;;;;;;;;9.33;100.00;99826.50;5090537;28;19915;-72
2023/02/25 08:56:00;;;;;;;;;;;;;;;9.42;100.00;99820.75;5090910;28;20389;-73
2023/02/25 08:58:26;;;;;;;;;;;;;;;9.50;100.00;99825.31;5091059;28;19923;-72
2023/02/25 09:00:53;;;;;;;;;;;;;;;9.56;100.00;99814.34;5071897;28;19916;-71
2023/02/25 09:03:19;;;;;;;;;;;;;;;9.64;100.00;99809.41;5089775;28;19920;-69
2023/02/25 09:05:49;;;;;;;;;;;;;;;9.67;100.00;99794.91;5090697;28;19969;-71
2023/02/25 09:08:14;;;;;;;;;;;;;;;9.80;100.00;99797.84;5090351;28;20661;-70
2023/02/25 09:10:40;;;;;;;;;;;;;;;9.97;100.00;99798.31;5090784;28;19927;-70
2023/02/25 09:13:05;;;;;;;;;;;;;;;10.18;100.00;99788.63;5089708;28;19916;-69
2023/02/25 09:15:31;;;;;;;;;;;;;;;10.26;100.00;99787.97;5078315;28;19927;-71
2023/02/25 09:17:56;;;;;;;;;;;;;;;10.28;100.00;99773.38;5090599;28;19912;-72
2023/02/25 09:20:23;;;;;;;;;;;;;;;10.32;100.00;99773.50;5090756;28;19928;-72
2023/02/25 09:22:48;;;;;;;;;;;;;;;10.37;100.00;99768.50;5090088;28;19969;-69
2023/02/25 09:25:13;;;;;;;;;;;;;;;10.41;100.00;99769.47;5090424;28;19920;-72
2023/02/25 09:27:38;;;;;;;;;;;;;;;10.45;100.00;99754.06;5090883;28;19916;-75
2023/02/25 09:30:04;;;;;;;;;;;;;;;10.48;100.00;99756.75;5090404;28;20413;-74
2023/02/25 09:32:49;;;;;;;;;;;;;;;10.60;100.00;99750.16;5066917;28;19979;-69
2023/02/25 09:35:14;;;;;;;;;;;;;;;10.64;100.00;99751.97;5067475;28;19985;-71
2023/02/25 09:37:40;;;;;;;;;;;;;;;10.68;100.00;99752.09;5069702;28;20449;-69
2023/02/25 09:40:05;;;;;;;;;;;;;;;10.66;100.00;99756.34;5071665;28;19916;-72
2023/02/25 09:42:42;;;;;;;;;;;;;;;10.73;100.00;99746.16;5071103;28;19928;-71
2023/02/25 09:45:14;;;;;;;;;;;;;;;10.99;100.00;99746.78;5071707;28;20340;-69
2023/02/25 09:47:49;;;;;;;;;;;;;;;11.21;100.00;99743.00;5071017;28;19920;-72
2023/02/25 09:50:24;;;;;;;;;;;;;;;11.39;100.00;99724.44;5071273;28;20411;-71
2023/02/25 09:52:50;;;;;;;;;;;;;;;11.42;100.00;99721.91;5071507;28;20011;-72
2023/02/25 09:55:33;;;;;;;;;;;;;;;11.46;100.00;99718.59;5071316;28;20007;-72
2023/02/25 09:58:10;;;;;;;;;;;;;;;11.58;100.00;99717.09;5070917;28;19943;-75
2023/02/25 10:00:55;;;;;;;;;;;;;;;11.70;100.00;99712.16;5071076;28;19917;-72
2023/02/25 10:03:24;;;;;;;;;;;;;;;11.89;100.00;99697.88;5042951;28;19923;-72
2023/02/25 10:05:55;;;;;;;;;;;;;;;11.96;100.00;99686.84;5071226;28;19916;-71
2023/02/25 10:08:27;;;;;;;;;;;;;;;12.15;100.00;99682.00;5070898;28;19912;-71
2023/02/25 10:11:00;;;;;;;;;;;;;;;12.37;100.00;99683.22;5071218;28;19917;-67
2023/02/25 10:13:45;;;;;;;;;;;;;;;12.59;100.00;99674.09;5070927;28;20027;-69
2023/02/25 10:16:21;;;;;;;;;;;;;;;12.81;100.00;99665.78;5071112;28;20390;-68
2023/02/25 10:19:18;;;;;;;;;;;;;;;13.03;100.00;99654.03;5070913;28;19927;-70
2023/02/25 10:22:02;;;;;;;;;;;;;;;13.30;100.00;99658.69;4991609;28;19936;-68
2023/02/25 10:24:33;;;;;;;;;;;;;;;13.50;100.00;99650.34;4991589;28;19925;-70
2023/02/25 10:27:17;;;;;;;;;;;;;;;13.58;100.00;99634.00;4991753;28;19918;-73
2023/02/25 10:29:48;;;;;;;;;;;;;;;13.78;100.00;99625.56;4991402;28;19914;-70
2023/02/25 10:32:24;;;;;;;;;;;;;;;14.10;100.00;99629.34;4991389;28;19924;-68
2023/02/25 10:34:50;;;;;;;;;;;;;;;14.19;100.00;99619.91;4991303;28;19921;-73
2023/02/25 10:37:25;;;;;;;;;;;;;;;14.34;100.00;99613.97;4991308;28;20371;-69
2023/02/25 10:39:53;;;;;;;;;;;;;;;14.47;100.00;99608.88;4995823;28;19922;-71
2023/02/25 10:42:18;;;;;;;;;;;;;;;14.67;100.00;99609.88;5010733;28;19917;-71
2023/02/25 10:44:44;;;;;;;;;;;;;;;14.77;100.00;99597.81;5010811;28;20384;-72
2023/02/25 10:47:12;;;;;;;;;;;;;;;15.10;100.00;99598.84;5010492;28;19917;-69
2023/02/25 10:49:38;;;;;;;;;;;;;;;15.27;100.00;99591.13;5010125;28;19917;-68
2023/02/25 10:52:04;;;;;;;;;;;;;;;15.42;99.93;99597.25;5010520;28;19917;-71
2023/02/25 10:54:34;;;;;;;;;;;;;;;15.61;96.93;99583.41;5010479;28;20215;-71
2023/02/25 10:57:12;;;;;;;;;;;;;;;15.86;94.62;99588.69;5040139;28;19916;-73
2023/02/25 10:59:38;;;;;;;;;;;;;;;16.09;94.83;99583.50;5092799;28;19916;-68
2023/02/25 11:02:24;;;;;;;;;;;;;;;16.26;94.77;99574.81;5092804;28;19931;-71
2023/02/25 11:04:51;;;;;;;;;;;;;;;16.54;89.48;99574.81;5090280;28;19917;-71
2023/02/25 11:07:28;;;;;;;;;;;;;;;16.76;81.43;99567.78;5092622;28;19923;-69
2023/02/25 11:10:04;;;;;;;;;;;;;;;17.10;77.15;99537.25;5092801;28;19919;-69
2023/02/25 11:12:30;;;;;;;;;;;;;;;17.49;74.01;99544.88;5092732;28;19973;-71
2023/02/25 11:14:56;;;;;;;;;;;;;;;17.73;73.46;99530.81;5092512;28;19912;-69
2023/02/25 11:17:21;;;;;;;;;;;;;;;17.92;74.10;99515.84;5092405;28;19923;-70
2023/02/25 11:19:49;;;;;;;;;;;;;;;18.07;73.22;99501.81;5090004;28;20030;-70
2023/02/25 11:22:14;;;;;;;;;;;;;;;18.33;73.02;99507.66;5092286;28;20326;-68
2023/02/25 11:24:41;;;;;;;;;;;;;;;18.45;70.41;99486.63;5092098;28;19916;-68
2023/02/25 11:27:18;;;;;;;;;;;;;;;18.54;70.85;99483.94;5092509;28;19966;-70
2023/02/25 11:29:43;;;;;;;;;;;;;;;18.52;71.18;99477.00;5091982;28;19916;-70
2023/02/25 11:32:11;;;;;;;;;;;;;;;18.41;69.77;99469.25;5092281;28;19931;-69
2023/02/25 11:34:48;;;;;;;;;;;;;;;18.40;69.62;99470.13;5092106;28;19924;-72
2023/02/25 11:37:48;;;;;;;;;;;;;;;18.53;67.73;99473.47;5092228;28;19916;-71
2023/02/25 11:40:24;;;;;;;;;;;;;;;18.65;65.04;99462.00;5048996;28;19918;-70
2023/02/25 11:43:15;;;;;;;;;;;;;;;18.80;63.43;99458.34;5049450;28;20015;-71
2023/02/25 11:45:50;;;;;;;;;;;;;;;18.91;61.74;99457.31;5049100;28;20379;-72
2023/02/25 11:48:17;;;;;;;;;;;;;;;18.84;61.35;99455.66;5049175;28;19917;-72
2023/02/25 11:50:54;;;;;;;;;;;;;;;18.82;60.62;99446.97;5048540;28;19921;-71
2023/02/25 11:53:23;;;;;;;;;;;;;;;18.80;60.10;99443.50;5048971;28;19925;-71
2023/02/25 11:56:01;;;;;;;;;;;;;;;18.78;60.17;99455.75;5049055;28;19962;-68
2023/02/25 11:58:32;;;;;;;;;;;;;;;18.70;58.88;99439.28;5049251;28;19916;-73
2023/02/25 12:00:57;;;;;;;;;;;;;;;18.59;63.82;99442.91;5048001;28;19913;-71
2023/02/25 12:03:45;;;;;;;;;;;;;;;18.70;61.61;99449.75;5048770;28;19966;-68
2023/02/25 12:06:16;;;;;;;;;;;;;;;18.96;58.44;99435.50;5048906;28;20337;-71
2023/02/25 12:09:08;;;;;;;;;;;;;;;19.13;60.77;99436.13;5048465;28;20390;-69
2023/02/25 12:11:36;;;;;;;;;;;;;;;19.30;60.13;99430.63;5048232;28;20375;-70
2023/02/25 12:14:19;;;;;;;;;;;;;;;19.39;59.41;99430.47;5048581;28;19987;-71
2023/02/25 12:16:47;;;;;;;;;;;;;;;19.47;57.54;99432.97;5065311;28;19912;-69
2023/02/25 12:19:31;;;;;;;;;;;;;;;19.40;56.48;99420.84;5091308;28;19923;-69
2023/02/25 12:22:33;;;;;;;;;;;;;;;19.39;56.26;99430.47;5091120;28;20293;-71
2023/02/25 12:25:09;;;;;;;;;;;;;;;19.47;54.23;99430.34;5048395;28;19916;-70
2023/02/25 12:27:37;;;;;;;;;;;;;;;19.47;54.08;99427.72;5048504;28;19923;-68
2023/02/25 12:30:08;;;;;;;;;;;;;;;19.54;51.44;99425.91;5048539;28;20054;-71
2023/02/25 12:32:48;;;;;;;;;;;;;;;19.44;50.51;99417.31;5048113;28;19917;-71
2023/02/25 12:35:14;;;;;;;;;;;;;;;19.36;50.90;99416.56;5048629;28;20032;-74
2023/02/25 12:37:56;;;;;;;;;;;;;;;19.33;50.89;99430.56;5047990;28;20322;-68
2023/02/25 12:40:57;;;;;;;;;;;;;;;19.20;51.81;99416.81;5031438;28;19923;-70
2023/02/25 12:43:41;;;;;;;;;;;;;;;19.13;51.91;99416.91;5048097;28;20319;-70
2023/02/25 12:46:19;;;;;;;;;;;;;;;19.05;52.24;99404.84;5047829;28;19923;-70
2023/02/25 12:49:04;;;;;;;;;;;;;;;19.03;53.12;99409.22;5048042;28;20419;-74
2023/02/25 12:51:40;;;;;;;;;;;;;;;19.11;52.76;99408.25;5047960;28;19959;-70
2023/02/25 12:54:29;;;;;;;;;;;;;;;19.13;52.47;99415.19;5031590;28;19913;-67